Time;durP1;ratioP1;P1;durP2;ratioP2;P2;SDS_P1;SDS_P2;PMS_P1;PMS_P2;Temp;Humidity;BMP_temperature;BMP_pressure;BME280_temperature;BME280_humidity;BME280_pressure;Samples;Min_cycle;Max_cycle;Signal;HPM_P1;HPM_P2
2022/08/25 00:02:36;;;;;;;4.93;3.40;;;;;;;21.25;56.94;99185.91;5286068;28;20097;-66
2022/08/25 00:05:28;;;;;;;4.30;3.58;;;;;;;20.85;57.85;99176.97;5287301;28;20490;-66
2022/08/25 00:08:22;;;;;;;8.23;3.30;;;;;;;20.82;57.21;99190.88;5287209;28;20051;-67
2022/08/25 00:11:16;;;;;;;3.90;2.95;;;;;;;20.74;57.92;99191.06;5298701;27;20055;-66
2022/08/25 00:14:13;;;;;;;4.10;3.00;;;;;;;20.69;56.66;99188.16;5300215;27;20105;-66
2022/08/25 00:17:04;;;;;;;5.07;3.03;;;;;;;20.74;57.43;99183.00;5286648;28;20120;-67
2022/08/25 00:19:54;;;;;;;3.88;3.25;;;;;;;20.71;57.40;99188.78;5284690;28;20071;-67
2022/08/25 00:22:45;;;;;;;7.20;3.35;;;;;;;20.82;57.65;99185.47;5285708;28;20113;-66
2022/08/25 00:25:35;;;;;;;5.22;3.55;;;;;;;20.75;57.56;99179.25;5285273;28;20047;-66
2022/08/25 00:28:25;;;;;;;4.85;3.50;;;;;;;20.64;57.08;99167.22;5286204;28;20099;-67
2022/08/25 00:31:19;;;;;;;5.28;3.45;;;;;;;20.51;57.92;99176.09;5285550;28;20126;-67
2022/08/25 00:34:15;;;;;;;5.13;3.10;;;;;;;20.52;57.92;99175.06;5286440;28;20075;-67
2022/08/25 00:37:08;;;;;;;4.90;3.42;;;;;;;20.67;58.48;99188.38;5285716;28;20058;-67
2022/08/25 00:39:58;;;;;;;4.85;3.45;;;;;;;20.77;58.59;99191.50;5286266;28;20125;-67
2022/08/25 00:42:48;;;;;;;4.63;3.60;;;;;;;20.59;58.37;99186.66;5284612;28;20088;-67
2022/08/25 00:45:39;;;;;;;4.80;3.50;;;;;;;20.50;58.67;99181.66;5286052;28;20425;-67
2022/08/25 00:48:29;;;;;;;5.72;3.78;;;;;;;20.59;58.54;99186.66;5286047;28;20048;-67
2022/08/25 00:51:28;;;;;;;5.13;3.78;;;;;;;20.38;58.32;99184.09;5284062;28;20103;-66
2022/08/25 00:54:24;;;;;;;5.88;4.07;;;;;;;20.27;58.73;99190.91;5286035;28;20189;-67
2022/08/25 00:57:17;;;;;;;4.82;3.72;;;;;;;20.22;58.93;99193.38;5285628;28;20588;-66
2022/08/25 01:00:21;;;;;;;5.32;3.38;;;;;;;20.11;59.30;99183.19;5286036;28;20066;-67
2022/08/25 01:03:12;;;;;;;5.43;3.63;;;;;;;20.16;59.10;99175.31;5285150;28;20077;-67
2022/08/25 01:06:03;;;;;;;7.22;4.18;;;;;;;20.34;58.88;99182.88;5285372;28;20063;-66
2022/08/25 01:08:54;;;;;;;8.48;4.70;;;;;;;20.34;59.27;99180.16;5285678;28;20054;-66
2022/08/25 01:11:45;;;;;;;6.07;4.57;;;;;;;20.36;59.05;99180.78;5283922;28;20116;-66
2022/08/25 01:14:36;;;;;;;7.53;4.63;;;;;;;20.21;59.29;99177.44;5285767;28;20467;-67
2022/08/25 01:17:44;;;;;;;7.60;4.57;;;;;;;20.28;59.25;99162.13;5285625;28;20055;-67
2022/08/25 01:20:34;;;;;;;6.13;4.68;;;;;;;20.32;59.57;99174.97;5285662;28;20176;-67
2022/08/25 01:23:25;;;;;;;5.57;4.32;;;;;;;20.14;59.59;99172.03;5285260;28;20070;-66
2022/08/25 01:26:20;;;;;;;6.18;4.78;;;;;;;19.91;60.13;99146.25;5285235;28;20063;-66
2022/08/25 01:29:19;;;;;;;7.40;5.22;;;;;;;20.06;59.74;99169.47;5285738;28;20048;-66
2022/08/25 01:32:12;;;;;;;9.65;5.25;;;;;;;20.08;59.21;99173.66;5284690;28;20067;-67
2022/08/25 01:35:02;;;;;;;8.20;4.53;;;;;;;20.03;58.60;99170.72;5285866;28;20059;-66
2022/08/25 01:37:53;;;;;;;7.03;4.68;;;;;;;20.06;59.37;99178.38;5284067;28;20047;-67
2022/08/25 01:40:43;;;;;;;6.55;4.85;;;;;;;19.88;59.78;99157.41;5285058;28;20058;-67
2022/08/25 01:43:37;;;;;;;7.07;4.80;;;;;;;20.04;59.52;99175.09;5284933;28;20055;-67
2022/08/25 01:46:27;;;;;;;10.48;5.50;;;;;;;20.08;59.67;99175.50;5285197;28;20051;-67
2022/08/25 01:49:18;;;;;;;8.32;5.35;;;;;;;20.13;59.83;99176.59;5285602;28;20589;-67
2022/08/25 01:52:32;;;;;;;7.20;4.97;;;;;;;20.16;59.87;99175.31;5284650;28;20169;-67
2022/08/25 01:55:23;;;;;;;5.55;4.43;;;;;;;20.08;59.67;99179.03;5288261;28;20059;-67
2022/08/25 01:58:13;;;;;;;9.60;4.93;;;;;;;20.05;60.08;99176.72;5289250;28;20048;-67
2022/08/25 02:01:08;;;;;;;9.50;4.63;;;;;;;19.97;59.19;99173.38;5288660;28;20051;-67
2022/08/25 02:03:58;;;;;;;7.43;5.53;;;;;;;20.03;60.15;99170.72;5288690;28;20059;-67
2022/08/25 02:06:49;;;;;;;7.78;5.65;;;;;;;20.07;60.12;99180.06;5289041;28;20043;-67
2022/08/25 02:09:39;;;;;;;9.70;5.38;;;;;;;19.99;59.89;99174.00;5289245;28;20052;-67
2022/08/25 02:12:34;;;;;;;8.02;5.75;;;;;;;19.85;60.33;99171.25;5286949;28;20580;-67
2022/08/25 02:15:24;;;;;;;7.65;5.40;;;;;;;19.81;60.30;99171.88;5289269;28;20047;-67
2022/08/25 02:18:14;;;;;;;10.07;5.75;;;;;;;19.76;60.81;99174.31;5287267;28;20047;-67
2022/08/25 02:21:04;;;;;;;9.48;5.65;;;;;;;19.78;60.27;99175.78;5288191;28;20062;-67
2022/08/25 02:23:55;;;;;;;8.18;5.43;;;;;;;19.72;60.94;99181.94;5288818;28;20062;-67
2022/08/25 02:26:45;;;;;;;7.07;5.18;;;;;;;19.64;60.54;99180.25;5288719;28;20055;-67
2022/08/25 02:29:35;;;;;;;8.20;5.30;;;;;;;19.67;60.14;99181.72;5289040;28;20188;-67
2022/08/25 02:32:26;;;;;;;7.75;5.50;;;;;;;19.61;59.39;99183.31;5287786;28;20058;-67
2022/08/25 02:35:16;;;;;;;8.77;6.07;;;;;;;19.67;60.66;99176.34;5288703;28;20059;-67
2022/08/25 02:38:06;;;;;;;9.68;5.85;;;;;;;19.65;60.46;99171.16;5288121;28;20053;-67
2022/08/25 02:40:58;;;;;;;8.07;6.00;;;;;;;19.64;60.93;99174.88;5288331;28;20054;-67
2022/08/25 02:43:49;;;;;;;10.60;5.82;;;;;;;19.74;60.67;99181.78;5288203;28;20092;-67
2022/08/25 02:46:39;;;;;;;6.85;5.30;;;;;;;19.73;60.25;99177.41;5288566;28;20112;-67
2022/08/25 02:49:30;;;;;;;7.82;5.10;;;;;;;19.74;60.90;99179.06;5288383;28;20047;-67
2022/08/25 02:52:21;;;;;;;9.20;5.25;;;;;;;19.53;61.05;99175.38;5286915;28;20051;-67
2022/08/25 02:55:12;;;;;;;12.07;5.68;;;;;;;19.57;61.13;99165.91;5288277;28;20055;-67
2022/08/25 02:58:03;;;;;;;8.07;5.07;;;;;;;19.56;61.24;99163.41;5287714;28;20109;-67
2022/08/25 03:00:55;;;;;;;6.32;4.75;;;;;;;19.43;61.13;99159.59;5287839;28;20120;-67
2022/08/25 03:03:47;;;;;;;10.35;5.47;;;;;;;19.52;61.29;99167.53;5287246;28;20433;-67
2022/08/25 03:06:37;;;;;;;7.53;5.40;;;;;;;19.24;61.54;99145.00;5295595;22;20099;-71
2022/08/25 03:09:27;;;;;;;11.80;5.80;;;;;;;19.38;60.64;99161.22;5230418;28;20055;-71
2022/08/25 03:12:17;;;;;;;10.27;5.43;;;;;;;19.42;61.45;99157.94;5243932;28;20083;-72
2022/08/25 03:15:09;;;;;;;8.25;5.80;;;;;;;19.35;61.08;99162.44;5245875;28;20063;-71
2022/08/25 03:18:04;;;;;;;9.10;5.63;;;;;;;19.28;61.55;99166.13;5243893;28;20067;-71
2022/08/25 03:20:57;;;;;;;6.85;5.28;;;;;;;19.24;61.71;99161.13;5244971;28;20055;-71
2022/08/25 03:23:47;;;;;;;9.52;6.05;;;;;;;19.16;61.54;99163.97;5245195;28;20056;-71
2022/08/25 03:26:53;;;;;;;11.30;5.90;;;;;;;19.07;61.72;99158.91;5245522;28;20062;-72
2022/08/25 03:29:44;;;;;;;8.55;6.07;;;;;;;19.26;62.35;99166.31;5245699;28;20101;-71
2022/08/25 03:32:34;;;;;;;10.38;6.53;;;;;;;19.24;62.29;99155.75;5243178;28;20078;-71
2022/08/25 03:35:25;;;;;;;9.20;5.80;;;;;;;19.20;62.15;99169.78;5246175;28;20186;-71
2022/08/25 03:38:15;;;;;;;7.40;5.47;;;;;;;19.05;62.15;99172.56;5245714;28;20064;-72
2022/08/25 03:41:34;;;;;;;8.73;5.47;;;;;;;19.03;61.90;99171.91;5244955;28;20430;-72
2022/08/25 03:44:24;;;;;;;7.50;5.60;;;;;;;18.81;62.80;99164.88;5244227;28;20055;-72
2022/08/25 03:47:15;;;;;;;8.85;5.72;;;;;;;19.01;62.92;99168.59;5244833;28;20521;-72
2022/08/25 03:50:08;;;;;;;10.73;7.07;;;;;;;19.07;62.61;99165.13;5245501;28;20076;-72
2022/08/25 03:52:59;;;;;;;10.50;6.95;;;;;;;19.24;62.33;99168.38;5244248;28;20075;-72
2022/08/25 03:55:49;;;;;;;9.35;6.15;;;;;;;18.90;63.02;99151.13;5244807;28;20052;-73
2022/08/25 03:58:39;;;;;;;9.35;6.28;;;;;;;18.83;62.90;99160.16;5244904;28;20075;-73
2022/08/25 04:01:29;;;;;;;9.57;6.68;;;;;;;18.77;63.22;99159.06;5244559;28;20102;-73
2022/08/25 04:04:20;;;;;;;11.63;7.18;;;;;;;18.70;63.89;99148.22;5243568;28;20056;-73
2022/08/25 04:07:10;;;;;;;10.07;6.70;;;;;;;18.61;64.68;99145.88;5244311;28;20181;-72
2022/08/25 04:10:01;;;;;;;11.25;6.90;;;;;;;18.52;63.46;99132.59;5244416;28;20075;-72
2022/08/25 04:12:51;;;;;;;9.80;7.28;;;;;;;18.68;62.99;99146.78;5243334;28;20131;-72
2022/08/25 04:15:42;;;;;;;10.10;7.03;;;;;;;18.29;64.68;99145.34;5244617;28;20056;-72
2022/08/25 04:18:33;;;;;;;10.15;6.32;;;;;;;18.31;63.40;99148.69;5242984;28;20052;-72
2022/08/25 04:21:24;;;;;;;11.98;6.22;;;;;;;18.41;62.67;99142.97;5243781;28;20063;-72
2022/08/25 04:24:15;;;;;;;11.18;6.85;;;;;;;18.35;62.84;99130.34;5243810;28;20102;-73
2022/08/25 04:27:05;;;;;;;8.93;6.72;;;;;;;18.39;63.35;99147.72;5257532;28;20123;-73
2022/08/25 04:29:55;;;;;;;9.60;6.30;;;;;;;18.41;62.37;99156.41;5244722;28;20129;-73
2022/08/25 04:32:49;;;;;;;10.15;6.65;;;;;;;18.38;62.89;99162.19;5243655;28;20056;-72
2022/08/25 04:35:46;;;;;;;8.57;6.45;;;;;;;18.39;62.73;99161.16;5243329;28;20079;-73
2022/08/25 04:38:38;;;;;;;10.50;6.88;;;;;;;18.39;63.36;99161.97;5243999;28;20088;-71
2022/08/25 04:41:29;;;;;;;9.43;6.80;;;;;;;18.37;62.98;99164.00;5243631;28;20049;-72
2022/08/25 04:44:19;;;;;;;12.85;6.68;;;;;;;18.33;63.49;99152.00;5257208;28;20056;-72
2022/08/25 04:47:09;;;;;;;9.18;5.97;;;;;;;18.55;63.86;99158.22;5243807;28;20055;-72
2022/08/25 04:50:00;;;;;;;11.55;7.00;;;;;;;18.63;64.11;99158.09;5244148;28;20098;-72
2022/08/25 04:52:50;;;;;;;11.75;6.35;;;;;;;18.60;64.25;99157.66;5243607;28;20145;-72
2022/08/25 04:55:45;;;;;;;9.48;6.82;;;;;;;18.55;64.35;99161.75;5243831;28;20384;-72
2022/08/25 04:58:36;;;;;;;12.40;6.55;;;;;;;18.47;64.53;99164.53;5243864;28;20059;-73
2022/08/25 05:01:27;;;;;;;9.73;6.93;;;;;;;18.37;64.38;99152.44;5243279;28;20059;-72
2022/08/25 05:04:20;;;;;;;10.27;6.70;;;;;;;18.46;64.50;99167.41;5244043;28;20193;-72
2022/08/25 05:07:17;;;;;;;10.05;6.35;;;;;;;18.33;64.90;99161.91;5243472;28;20059;-72
2022/08/25 05:10:08;;;;;;;9.73;6.60;;;;;;;18.40;64.49;99162.81;5243615;28;20417;-72
2022/08/25 05:12:58;;;;;;;11.50;6.32;;;;;;;18.29;64.82;99167.66;5243053;28;20417;-72
2022/08/25 05:15:56;;;;;;;10.90;6.68;;;;;;;18.31;64.08;99168.31;5243682;28;20088;-72
2022/08/25 05:18:49;;;;;;;10.05;6.43;;;;;;;18.50;63.99;99168.69;5242423;28;20059;-72
2022/08/25 05:21:40;;;;;;;12.02;6.78;;;;;;;18.44;65.60;99162.25;5242800;28;20059;-73
2022/08/25 05:24:30;;;;;;;10.65;6.68;;;;;;;18.52;65.12;99162.13;5242663;28;20119;-72
2022/08/25 05:27:21;;;;;;;17.20;7.45;;;;;;;18.69;65.84;99154.63;5243378;28;20053;-72
2022/08/25 05:30:12;;;;;;;15.38;7.20;;;;;;;18.82;64.91;99153.13;5245798;28;20127;-72
2022/08/25 05:33:02;;;;;;;18.08;7.68;;;;;;;18.97;65.74;99160.09;5247302;28;20451;-73
2022/08/25 05:35:53;;;;;;;27.65;7.75;;;;;;;18.87;65.79;99140.78;5247454;28;20052;-72
2022/08/25 05:38:43;;;;;;;22.58;7.63;;;;;;;18.86;65.66;99146.34;5246185;28;20193;-72
2022/08/25 05:41:34;;;;;;;17.23;7.68;;;;;;;18.94;64.26;99154.25;5245234;28;20126;-72
2022/08/25 05:44:24;;;;;;;26.45;7.90;;;;;;;18.96;66.07;99162.97;5247976;28;20083;-73
2022/08/25 05:47:14;;;;;;;18.90;8.30;;;;;;;19.14;65.57;99157.97;5246998;28;20117;-72
2022/08/25 05:50:04;;;;;;;12.77;7.43;;;;;;;19.11;66.04;99141.41;5247430;28;20123;-72
2022/08/25 05:52:54;;;;;;;14.75;7.22;;;;;;;19.30;64.85;99148.75;5246885;28;20052;-72
2022/08/25 05:55:45;;;;;;;14.98;6.57;;;;;;;19.35;64.21;99137.44;5246166;28;20062;-73
2022/08/25 05:58:36;;;;;;;14.68;6.93;;;;;;;19.39;63.02;99141.38;5246028;28;20517;-72
2022/08/25 06:04:37;;;;;;;17.50;8.57;;;;;;;19.48;64.98;99134.81;5247280;28;20056;-72
2022/08/25 06:07:30;;;;;;;13.55;7.97;;;;;;;19.67;64.05;99136.00;5246862;28;20158;-73
2022/08/25 06:10:20;;;;;;;17.05;8.98;;;;;;;19.75;63.66;99135.81;5246882;28;20078;-72
2022/08/25 06:13:10;;;;;;;18.15;8.60;;;;;;;19.87;63.51;99134.22;5250707;28;20055;-72
2022/08/25 06:16:02;;;;;;;14.15;8.15;;;;;;;19.94;63.06;99135.09;5245775;28;20048;-73
2022/08/25 06:18:52;;;;;;;17.73;9.18;;;;;;;20.06;63.56;99140.69;5245508;28;20088;-73
2022/08/25 06:21:43;;;;;;;19.27;9.35;;;;;;;20.17;63.24;99144.69;5244613;28;20048;-73
2022/08/25 06:24:33;;;;;;;17.85;9.45;;;;;;;20.16;63.65;99143.88;5247271;28;20326;-73
2022/08/25 06:27:23;;;;;;;17.88;9.07;;;;;;;20.26;62.85;99129.16;5246955;28;20569;-73
2022/08/25 06:30:16;;;;;;;14.35;9.00;;;;;;;20.33;63.32;99143.47;5244925;28;20178;-73
2022/08/25 06:33:14;;;;;;;15.70;8.63;;;;;;;20.47;62.33;99147.88;5246311;28;20056;-73
2022/08/25 06:36:05;;;;;;;19.98;9.50;;;;;;;20.59;62.09;99146.25;5246516;28;20186;-73
2022/08/25 06:38:55;;;;;;;14.88;9.63;;;;;;;20.70;62.52;99144.03;5246520;28;20075;-72
2022/08/25 06:41:50;;;;;;;19.00;9.18;;;;;;;20.84;62.30;99140.28;5244401;28;20136;-72
2022/08/25 06:44:40;;;;;;;16.45;9.43;;;;;;;20.98;61.89;99125.78;5246327;28;20048;-73
2022/08/25 06:47:30;;;;;;;17.02;10.38;;;;;;;21.10;62.30;99140.28;5246123;28;20044;-73
2022/08/25 06:50:20;;;;;;;21.75;10.65;;;;;;;21.10;62.26;99140.28;5246031;28;20163;-73
2022/08/25 06:53:11;;;;;;;14.95;9.85;;;;;;;21.37;62.00;99140.28;5245653;28;20064;-73
2022/08/25 06:56:04;;;;;;;14.50;9.27;;;;;;;21.54;61.22;99133.41;5245081;28;20506;-72
2022/08/25 06:58:56;;;;;;;14.95;8.82;;;;;;;21.75;60.30;99132.28;5245601;28;20181;-73
2022/08/25 07:01:46;;;;;;;17.15;9.38;;;;;;;21.84;60.10;99146.41;5244214;28;20581;-72
2022/08/25 07:04:39;;;;;;;14.55;9.35;;;;;;;22.04;59.56;99141.75;5246770;28;20579;-73
2022/08/25 07:07:29;;;;;;;14.52;9.32;;;;;;;22.15;59.13;99124.09;5246013;28;20549;-73
2022/08/25 07:10:33;;;;;;;12.98;8.18;;;;;;;22.42;58.85;99132.03;5244721;28;20675;-71
2022/08/25 07:13:25;;;;;;;11.65;8.20;;;;;;;22.65;57.83;99121.50;5245674;28;20577;-72
2022/08/25 07:16:17;;;;;;;15.48;8.88;;;;;;;22.73;57.94;99123.91;5230208;28;20147;-72
2022/08/25 07:19:08;;;;;;;15.20;9.40;;;;;;;22.85;57.34;99120.53;5244291;28;20053;-72
2022/08/25 07:22:04;;;;;;;18.00;9.88;;;;;;;23.11;57.56;99116.78;5243996;28;20125;-72
2022/08/25 07:24:54;;;;;;;17.25;10.45;;;;;;;23.55;55.73;99121.13;5246071;28;20181;-73
2022/08/25 07:27:44;;;;;;;12.68;7.68;;;;;;;24.02;55.00;99117.91;5245314;28;20055;-74
2022/08/25 07:30:34;;;;;;;13.23;7.70;;;;;;;24.46;54.46;99118.56;5245000;28;20557;-72
2022/08/25 07:33:25;;;;;;;12.25;7.68;;;;;;;24.64;53.00;99118.53;5244909;28;20506;-73
2022/08/25 07:36:16;;;;;;;12.15;7.47;;;;;;;25.05;52.41;99112.19;5245051;28;20289;-72
2022/08/25 07:39:06;;;;;;;15.05;7.72;;;;;;;25.27;51.10;99109.78;5245150;28;20044;-72
2022/08/25 07:41:57;;;;;;;11.82;7.40;;;;;;;26.37;49.85;99113.41;5242808;28;20059;-74
2022/08/25 07:44:47;;;;;;;10.90;7.38;;;;;;;27.64;45.80;99098.31;5245043;28;20151;-71
2022/08/25 07:47:37;;;;;;;14.38;7.28;;;;;;;28.64;43.91;99100.81;5244968;28;20100;-73
2022/08/25 07:50:30;;;;;;;9.43;6.82;;;;;;;29.26;42.63;99104.88;5244499;28;20072;-73
2022/08/25 07:53:21;;;;;;;12.23;6.85;;;;;;;29.65;41.35;99107.31;5244438;28;20074;-72
2022/08/25 07:56:15;;;;;;;11.45;7.13;;;;;;;30.31;40.03;99107.56;5245164;28;20067;-72
2022/08/25 07:59:06;;;;;;;10.32;6.75;;;;;;;30.88;39.05;99109.28;5244838;28;20131;-72
2022/08/25 08:02:01;;;;;;;9.77;6.40;;;;;;;31.13;38.81;99108.44;5243493;28;20052;-72
2022/08/25 08:04:52;;;;;;;9.65;6.30;;;;;;;30.80;38.19;99104.38;5244814;28;20052;-73
2022/08/25 08:07:43;;;;;;;8.27;6.28;;;;;;;30.79;38.87;99110.91;5244578;28;20060;-73
2022/08/25 08:10:37;;;;;;;6.80;5.65;;;;;;;31.57;37.51;99068.66;5243188;28;20107;-73
2022/08/25 08:13:48;;;;;;;5.55;4.95;;;;;;;32.19;36.53;99110.34;5244345;28;20054;-73
2022/08/25 08:16:39;;;;;;;7.70;5.00;;;;;;;32.59;36.17;99098.31;5244611;28;20056;-72
2022/08/25 08:19:31;;;;;;;9.30;5.32;;;;;;;32.53;35.39;99093.97;5243393;28;20048;-73
2022/08/25 08:22:21;;;;;;;6.57;5.35;;;;;;;32.59;35.24;99097.50;5243278;28;20489;-73
2022/08/25 08:25:11;;;;;;;5.88;4.80;;;;;;;32.77;35.94;99095.97;5243264;28;20055;-72
2022/08/25 08:28:10;;;;;;;7.03;5.22;;;;;;;33.08;34.80;99093.78;5244047;28;20478;-73
2022/08/25 08:31:00;;;;;;;5.22;4.45;;;;;;;32.89;34.70;99077.19;5243819;28;20336;-72
2022/08/25 08:33:53;;;;;;;8.10;5.43;;;;;;;33.30;33.95;99082.31;5244158;28;20131;-71
2022/08/25 08:36:43;;;;;;;9.02;5.38;;;;;;;32.85;34.89;99081.59;5244397;28;20469;-71
2022/08/25 08:39:36;;;;;;;8.15;5.05;;;;;;;33.64;33.42;99090.47;5243911;28;20048;-72
2022/08/25 08:42:45;;;;;;;8.95;5.13;;;;;;;34.09;33.70;99080.84;5241943;28;20049;-72
2022/08/25 08:45:42;;;;;;;6.15;4.45;;;;;;;33.82;33.66;99075.13;5244542;28;20178;-72
2022/08/25 08:49:00;;;;;;;6.20;4.80;;;;;;;33.86;33.50;99074.22;5243286;28;20059;-72
2022/08/25 08:51:58;;;;;;;6.10;4.20;;;;;;;34.00;32.94;99084.50;5243106;28;20829;-73
2022/08/25 08:54:59;;;;;;;5.53;4.70;;;;;;;33.87;32.43;99069.53;5244362;28;20056;-72
2022/08/25 08:57:52;;;;;;;6.07;4.97;;;;;;;34.65;32.21;99070.94;5242511;28;20063;-72
2022/08/25 09:00:51;;;;;;;5.43;4.20;;;;;;;35.08;32.25;99067.19;5242175;28;20055;-73
2022/08/25 09:03:45;;;;;;;8.55;4.65;;;;;;;35.12;31.64;99068.22;5242939;28;20048;-73
2022/08/25 09:06:47;;;;;;;4.88;4.35;;;;;;;35.05;31.85;99069.44;5243077;28;20055;-73
2022/08/25 09:09:40;;;;;;;6.43;4.43;;;;;;;35.68;30.34;99062.44;5243970;28;20068;-73
2022/08/25 09:12:53;;;;;;;10.20;4.38;;;;;;;35.21;31.40;99064.44;5241356;28;20113;-72
2022/08/25 09:19:30;;;;;;;6.22;4.55;;;;;;;35.46;30.78;99051.28;5240384;28;20049;-73
2022/08/25 09:22:39;;;;;;;6.05;4.40;;;;;;;35.79;30.48;99052.00;5242703;28;20093;-72
2022/08/25 09:26:00;;;;;;;4.75;4.35;;;;;;;35.61;29.85;99034.47;5244133;28;20462;-73
2022/08/25 09:29:14;;;;;;;6.13;4.57;;;;;;;35.78;30.06;99033.00;5242581;28;20106;-72
2022/08/25 09:32:07;;;;;;;8.25;4.03;;;;;;;36.42;28.64;99040.06;5242682;28;20212;-73
2022/08/25 09:35:01;;;;;;;6.17;4.70;;;;;;;35.87;29.35;99017.38;5243741;28;20052;-72
2022/08/25 09:37:57;;;;;;;5.82;4.97;;;;;;;35.49;29.64;99032.19;5243368;28;20052;-72
2022/08/25 09:40:53;;;;;;;6.00;3.83;;;;;;;35.92;29.13;99022.75;5243384;28;20067;-72
2022/08/25 09:43:53;;;;;;;6.07;4.20;;;;;;;35.93;28.36;99024.41;5243234;28;20106;-73
2022/08/25 09:47:00;;;;;;;4.65;4.00;;;;;;;36.45;28.58;99016.53;5243359;28;20140;-72
2022/08/25 09:50:00;;;;;;;4.63;3.65;;;;;;;35.95;29.24;99031.22;5243430;28;20048;-72
2022/08/25 09:52:53;;;;;;;5.90;3.85;;;;;;;34.47;30.60;99022.19;5242798;28;20530;-72
2022/08/25 09:55:47;;;;;;;7.57;3.90;;;;;;;35.73;28.93;99014.59;5243377;28;20060;-73
2022/08/25 09:58:37;;;;;;;4.90;3.90;;;;;;;35.47;29.11;99009.63;5243301;28;20044;-72
2022/08/25 10:01:27;;;;;;;5.28;3.88;;;;;;;34.64;29.45;98999.63;5241553;28;20052;-72
2022/08/25 10:04:35;;;;;;;4.65;3.60;;;;;;;35.72;29.91;98986.22;5242265;28;20338;-72
2022/08/25 10:07:35;;;;;;;5.82;3.72;;;;;;;34.19;30.39;98994.56;5243024;28;20058;-72
2022/08/25 10:10:33;;;;;;;4.03;3.63;;;;;;;35.00;30.46;98997.88;5241697;28;20052;-72
2022/08/25 10:13:42;;;;;;;6.72;3.60;;;;;;;35.13;29.70;99000.94;5242883;28;20055;-72
2022/08/25 10:16:32;;;;;;;5.25;3.67;;;;;;;34.86;30.06;99002.53;5246101;28;20059;-72
2022/08/25 10:19:28;;;;;;;5.25;3.28;;;;;;;35.14;30.09;98981.38;5246413;28;20158;-72
2022/08/25 10:22:23;;;;;;;5.18;3.97;;;;;;;34.68;31.20;98984.16;5245933;28;20049;-73
2022/08/25 10:25:17;;;;;;;5.45;4.22;;;;;;;34.33;30.47;98967.91;5246965;28;20422;-72
2022/08/25 10:28:26;;;;;;;5.75;3.83;;;;;;;34.20;30.99;98973.34;5246278;28;20059;-72
2022/08/25 10:31:40;;;;;;;4.10;3.65;;;;;;;35.28;29.33;98971.16;5245092;28;20059;-72
2022/08/25 10:34:53;;;;;;;6.10;3.88;;;;;;;34.92;29.17;98971.00;5245932;28;20555;-72
2022/08/25 10:38:06;;;;;;;4.78;3.80;;;;;;;34.29;30.69;98960.56;5245734;28;20097;-71
2022/08/25 10:41:14;;;;;;;4.10;3.70;;;;;;;33.96;30.53;98968.75;5245820;28;20426;-71
2022/08/25 10:48:00;;;;;;;5.15;4.03;;;;;;;33.20;32.44;98946.66;5245707;28;20063;-71
2022/08/25 10:51:33;;;;;;;5.10;4.00;;;;;;;32.91;32.17;98946.69;5245770;28;20063;-73
2022/08/25 10:54:28;;;;;;;10.10;4.03;;;;;;;33.60;31.26;98940.94;5246234;28;20494;-72
2022/08/25 10:57:34;;;;;;;4.28;3.85;;;;;;;34.49;30.08;98940.13;5245984;28;20512;-71
2022/08/25 11:00:45;;;;;;;4.47;3.58;;;;;;;34.52;31.69;98925.78;5244427;28;20055;-71
2022/08/25 11:03:50;;;;;;;6.93;4.50;;;;;;;33.80;31.19;98942.59;5245609;28;20075;-71
2022/08/25 11:06:49;;;;;;;7.37;3.73;;;;;;;33.16;31.69;98933.81;5245541;28;20056;-72
2022/08/25 11:09:48;;;;;;;3.97;3.50;;;;;;;33.75;31.93;98923.44;5246024;28;20056;-72
2022/08/25 11:12:50;;;;;;;4.97;3.65;;;;;;;33.55;30.74;98928.09;5242480;28;20059;-70
2022/08/25 11:15:51;;;;;;;5.38;3.70;;;;;;;33.20;31.01;98924.69;5245783;28;20060;-72
2022/08/25 11:19:19;;;;;;;5.75;4.10;;;;;;;33.49;32.13;98920.22;5244650;28;20055;-72
2022/08/25 11:22:42;;;;;;;6.70;3.92;;;;;;;33.53;30.55;98916.59;5244351;28;20059;-70
2022/08/25 11:25:44;;;;;;;3.92;3.55;;;;;;;32.16;33.02;98910.66;5245573;28;20087;-71
2022/08/25 11:28:53;;;;;;;4.68;3.60;;;;;;;32.89;32.08;98912.41;5243773;28;20063;-71
2022/08/25 11:31:47;;;;;;;6.57;4.25;;;;;;;32.00;32.56;98915.44;5244370;28;20048;-72
2022/08/25 11:34:42;;;;;;;5.43;4.13;;;;;;;33.01;32.47;98907.34;5245414;28;20418;-71
2022/08/25 11:37:37;;;;;;;5.32;3.60;;;;;;;33.67;30.95;98894.66;5244973;28;20059;-72
2022/08/25 11:40:43;;;;;;;5.07;3.67;;;;;;;33.55;31.25;98895.13;5244803;28;20052;-72
2022/08/25 11:43:54;;;;;;;4.38;3.60;;;;;;;32.68;31.24;98898.09;5244772;28;20052;-72
2022/08/25 11:46:59;;;;;;;4.38;3.30;;;;;;;32.85;32.41;98898.47;5245227;28;20055;-71
2022/08/25 11:49:57;;;;;;;3.70;3.17;;;;;;;33.48;31.02;98896.56;5244115;28;20454;-72
2022/08/25 11:52:55;;;;;;;4.75;3.55;;;;;;;32.95;31.01;98898.34;5244220;28;20053;-70
2022/08/25 11:55:49;;;;;;;6.35;3.72;;;;;;;33.26;31.59;98888.91;5244822;28;20517;-71
2022/08/25 11:58:42;;;;;;;3.92;3.53;;;;;;;33.73;30.19;98887.16;5244797;28;20056;-71
2022/08/25 12:01:39;;;;;;;7.28;2.80;;;;;;;33.50;29.05;98897.94;5243582;28;20044;-71
2022/08/25 12:04:37;;;;;;;4.28;3.10;;;;;;;33.07;30.55;98889.69;5244744;28;20048;-71
2022/08/25 12:07:47;;;;;;;3.65;3.15;;;;;;;33.59;30.57;98887.09;5244103;28;20495;-71
2022/08/25 12:11:07;;;;;;;3.35;2.97;;;;;;;33.66;28.47;98885.59;5243065;28;20052;-72
2022/08/25 12:14:16;;;;;;;5.13;3.05;;;;;;;33.81;30.11;98879.06;5243410;28;20060;-71
2022/08/25 12:17:25;;;;;;;5.85;3.42;;;;;;;33.50;30.60;98881.44;5257744;28;20071;-72
2022/08/25 12:20:15;;;;;;;5.07;3.33;;;;;;;33.18;31.07;98877.47;5241129;28;20117;-71
2022/08/25 12:23:06;;;;;;;5.75;3.70;;;;;;;32.52;32.12;98872.75;5243940;28;20434;-71
2022/08/25 12:26:03;;;;;;;4.30;3.03;;;;;;;33.29;30.13;98874.59;5244276;28;20075;-72
2022/08/25 12:29:06;;;;;;;3.50;3.00;;;;;;;33.52;30.63;98881.97;5243125;28;20507;-70
2022/08/25 12:32:13;;;;;;;3.55;3.25;;;;;;;33.32;30.41;98874.00;5243192;28;20079;-72
2022/08/25 12:35:18;;;;;;;3.47;3.15;;;;;;;33.36;30.80;98870.34;5243252;28;20555;-72
2022/08/25 12:38:15;;;;;;;5.95;3.30;;;;;;;33.39;31.20;98867.00;5243827;28;20560;-71
2022/08/25 12:41:12;;;;;;;5.88;3.50;;;;;;;33.52;31.40;98864.66;5242989;28;20221;-71
2022/08/25 12:44:41;;;;;;;3.10;2.80;;;;;;;33.75;31.47;98860.19;5244254;28;20133;-71
2022/08/25 12:47:34;;;;;;;4.75;3.03;;;;;;;33.80;30.79;98858.16;5242340;28;20102;-71
2022/08/25 12:50:35;;;;;;;5.72;3.08;;;;;;;33.60;31.14;98855.72;5243608;28;20145;-72
2022/08/25 12:53:37;;;;;;;5.15;3.10;;;;;;;33.40;29.49;98854.88;5243891;28;20056;-72
2022/08/25 12:56:43;;;;;;;5.43;2.90;;;;;;;32.73;30.42;98838.47;5244026;28;20425;-72
2022/08/25 12:59:40;;;;;;;3.67;2.80;;;;;;;33.21;30.39;98849.41;5244092;28;20049;-70
2022/08/25 13:02:40;;;;;;;3.35;2.95;;;;;;;32.29;31.83;98850.44;5242813;28;20521;-72
2022/08/25 13:05:44;;;;;;;2.95;2.72;;;;;;;32.36;31.84;98850.09;5244170;28;20053;-72
2022/08/25 13:09:02;;;;;;;3.22;2.92;;;;;;;32.76;29.92;98848.03;5243772;28;20500;-71
2022/08/25 13:12:16;;;;;;;3.78;2.70;;;;;;;32.62;31.06;98847.13;5242078;28;20040;-71
2022/08/25 13:15:13;;;;;;;3.33;2.85;;;;;;;32.79;30.69;98835.66;5242782;28;20449;-72
2022/08/25 13:18:12;;;;;;;3.30;2.97;;;;;;;32.65;31.42;98846.50;5242631;28;20238;-71
2022/08/25 13:21:06;;;;;;;8.38;3.40;;;;;;;32.84;30.91;98839.13;5241867;28;20051;-72
2022/08/25 13:23:58;;;;;;;4.03;2.90;;;;;;;32.94;30.64;98836.25;5242102;28;20127;-72
2022/08/25 13:26:58;;;;;;;4.82;3.00;;;;;;;32.98;30.33;98833.78;5256531;28;20114;-71
2022/08/25 13:29:51;;;;;;;5.18;3.10;;;;;;;32.48;31.74;98825.03;5242152;28;20105;-71
2022/08/25 13:32:42;;;;;;;4.90;3.13;;;;;;;32.70;31.64;98817.06;5241704;28;20063;-72
2022/08/25 13:35:32;;;;;;;2.80;2.60;;;;;;;33.25;30.71;98822.16;5242574;28;20049;-72
2022/08/25 13:38:22;;;;;;;3.53;3.00;;;;;;;33.04;30.05;98821.59;5242610;28;20513;-72
2022/08/25 13:41:18;;;;;;;3.78;2.80;;;;;;;33.22;29.63;98815.31;5242881;28;20051;-71
2022/08/25 13:44:08;;;;;;;2.63;2.40;;;;;;;33.25;30.25;98818.59;5244088;28;20052;-71
2022/08/25 13:47:08;;;;;;;6.85;2.92;;;;;;;33.37;29.84;98814.25;5243774;28;20057;-71
2022/08/25 13:50:29;;;;;;;3.58;3.20;;;;;;;32.99;29.83;98810.72;5244071;28;20062;-71
2022/08/25 13:53:25;;;;;;;6.43;3.20;;;;;;;32.50;31.21;98809.91;5245785;28;20140;-71
2022/08/25 13:56:24;;;;;;;5.53;2.70;;;;;;;33.08;29.80;98803.44;5247334;28;20064;-71